sensor_id;sensor_type;location;lat;lon;timestamp;pressure;altitude;pressure_sealevel;temperature;humidity
67430;BME280;54298;52.076;5.264;2022-12-24T00:00:49;100455.0;;;10.9;82.0
67430;BME280;54298;52.076;5.264;2022-12-24T00:02:30;100452.0;;;10.8;82.38
67430;BME280;54298;52.076;5.264;2022-12-24T00:04:06;100455.0;;;10.8;82.2
67430;BME280;54298;52.076;5.264;2022-12-24T00:05:42;100452.0;;;10.8;82.32
67430;BME280;54298;52.076;5.264;2022-12-24T00:08:55;100455.0;;;10.86;82.12
67430;BME280;54298;52.076;5.264;2022-12-24T00:10:31;100460.0;;;10.89;82.0
67430;BME280;54298;52.076;5.264;2022-12-24T00:12:08;100462.0;;;10.88;82.02
67430;BME280;54298;52.076;5.264;2022-12-24T00:15:22;100465.0;;;10.9;81.75
67430;BME280;54298;52.076;5.264;2022-12-24T00:16:58;100452.0;;;10.8;81.7
67430;BME280;54298;52.076;5.264;2022-12-24T00:18:34;100465.0;;;10.86;81.52
67430;BME280;54298;52.076;5.264;2022-12-24T00:21:46;100472.0;;;10.88;81.25
67430;BME280;54298;52.076;5.264;2022-12-24T00:23:22;100474.0;;;10.91;81.22
67430;BME280;54298;52.076;5.264;2022-12-24T00:25:00;100469.0;;;10.92;80.91
67430;BME280;54298;52.076;5.264;2022-12-24T00:26:36;100477.0;;;10.91;80.97
67430;BME280;54298;52.076;5.264;2022-12-24T00:29:50;100472.0;;;10.93;80.91
67430;BME280;54298;52.076;5.264;2022-12-24T00:31:26;100478.0;;;10.96;80.87
67430;BME280;54298;52.076;5.264;2022-12-24T00:33:03;100480.0;;;10.9;80.77
67430;BME280;54298;52.076;5.264;2022-12-24T00:36:17;100488.0;;;10.84;81.0
67430;BME280;54298;52.076;5.264;2022-12-24T00:37:54;100498.0;;;10.88;80.74
67430;BME280;54298;52.076;5.264;2022-12-24T00:39:31;100498.0;;;10.94;80.56
67430;BME280;54298;52.076;5.264;2022-12-24T00:42:45;100501.0;;;10.83;80.88
67430;BME280;54298;52.076;5.264;2022-12-24T00:44:21;100514.0;;;10.76;80.95
67430;BME280;54298;52.076;5.264;2022-12-24T00:45:59;100511.0;;;10.7;81.13
67430;BME280;54298;52.076;5.264;2022-12-24T00:47:35;100510.0;;;10.71;81.16
67430;BME280;54298;52.076;5.264;2022-12-24T00:50:50;100509.0;;;10.83;80.7
67430;BME280;54298;52.076;5.264;2022-12-24T00:52:26;100516.0;;;10.74;80.83
67430;BME280;54298;52.076;5.264;2022-12-24T00:54:03;100519.0;;;10.83;80.37
67430;BME280;54298;52.076;5.264;2022-12-24T00:57:16;100522.0;;;10.73;80.55
67430;BME280;54298;52.076;5.264;2022-12-24T00:58:52;100524.0;;;10.84;80.3
67430;BME280;54298;52.076;5.264;2022-12-24T01:00:29;100525.0;;;10.74;80.33
67430;BME280;54298;52.076;5.264;2022-12-24T01:02:05;100536.0;;;10.83;80.22
67430;BME280;54298;52.076;5.264;2022-12-24T01:05:19;100538.0;;;10.72;80.33
67430;BME280;54298;52.076;5.264;2022-12-24T01:06:54;100539.0;;;10.64;80.62
67430;BME280;54298;52.076;5.264;2022-12-24T01:08:31;100541.0;;;10.74;80.11
67430;BME280;54298;52.076;5.264;2022-12-24T01:11:47;100547.0;;;10.68;80.34
67430;BME280;54298;52.076;5.264;2022-12-24T01:13:24;100552.0;;;10.62;80.69
67430;BME280;54298;52.076;5.264;2022-12-24T01:15:01;100563.0;;;10.61;80.72
67430;BME280;54298;52.076;5.264;2022-12-24T01:18:14;100562.0;;;10.57;80.91
67430;BME280;54298;52.076;5.264;2022-12-24T01:19:51;100571.0;;;10.5;80.95
67430;BME280;54298;52.076;5.264;2022-12-24T01:21:27;100573.0;;;10.46;81.17
67430;BME280;54298;52.076;5.264;2022-12-24T01:23:03;100578.0;;;10.47;81.16
67430;BME280;54298;52.076;5.264;2022-12-24T01:26:17;100578.0;;;10.32;81.47
67430;BME280;54298;52.076;5.264;2022-12-24T01:27:53;100586.0;;;10.32;81.42
67430;BME280;54298;52.076;5.264;2022-12-24T01:29:29;100588.0;;;10.29;81.62
67430;BME280;54298;52.076;5.264;2022-12-24T01:32:46;100590.0;;;10.4;81.39
67430;BME280;54298;52.076;5.264;2022-12-24T01:34:22;100586.0;;;10.37;81.13
67430;BME280;54298;52.076;5.264;2022-12-24T01:36:01;100594.0;;;10.23;81.55
67430;BME280;54298;52.076;5.264;2022-12-24T01:39:14;100596.0;;;10.17;81.88
67430;BME280;54298;52.076;5.264;2022-12-24T01:40:52;100600.0;;;10.18;81.66
67430;BME280;54298;52.076;5.264;2022-12-24T01:42:28;100593.0;;;10.14;82.05
67430;BME280;54298;52.076;5.264;2022-12-24T01:44:22;100599.0;;;10.14;81.77
67430;BME280;54298;52.076;5.264;2022-12-24T01:46:01;100596.0;;;10.06;82.23
67430;BME280;54298;52.076;5.264;2022-12-24T01:49:15;100609.0;;;10.11;81.96
67430;BME280;54298;52.076;5.264;2022-12-24T01:50:55;100611.0;;;10.05;81.86
67430;BME280;54298;52.076;5.264;2022-12-24T01:52:35;100608.0;;;10.14;81.87
67430;BME280;54298;52.076;5.264;2022-12-24T01:55:53;100607.0;;;10.18;81.38
67430;BME280;54298;52.076;5.264;2022-12-24T01:57:34;100608.0;;;10.16;81.5
67430;BME280;54298;52.076;5.264;2022-12-24T01:59:15;100614.0;;;10.06;81.72
67430;BME280;54298;52.076;5.264;2022-12-24T02:00:53;100617.0;;;10.02;81.84
67430;BME280;54298;52.076;5.264;2022-12-24T02:04:12;100622.0;;;10.08;81.53
67430;BME280;54298;52.076;5.264;2022-12-24T02:05:54;100625.0;;;10.09;81.63
67430;BME280;54298;52.076;5.264;2022-12-24T02:07:32;100625.0;;;10.0;82.1
67430;BME280;54298;52.076;5.264;2022-12-24T02:09:09;100630.0;;;10.05;81.74
67430;BME280;54298;52.076;5.264;2022-12-24T02:12:24;100632.0;;;9.93;81.91
67430;BME280;54298;52.076;5.264;2022-12-24T02:14:01;100637.0;;;9.98;81.8
67430;BME280;54298;52.076;5.264;2022-12-24T02:15:50;100634.0;;;9.91;82.22
67430;BME280;54298;52.076;5.264;2022-12-24T02:17:38;100639.0;;;9.8;82.72
67430;BME280;54298;52.076;5.264;2022-12-24T02:21:51;100647.0;;;9.78;82.92
67430;BME280;54298;52.076;5.264;2022-12-24T02:27:16;100655.0;;;9.67;83.69
67430;BME280;54298;52.076;5.264;2022-12-24T02:29:13;100657.0;;;9.74;83.35
67430;BME280;54298;52.076;5.264;2022-12-24T02:30:59;100655.0;;;9.59;83.74
67430;BME280;54298;52.076;5.264;2022-12-24T02:33:49;100656.0;;;9.48;84.3
67430;BME280;54298;52.076;5.264;2022-12-24T02:35:35;100658.0;;;9.51;84.36
67430;BME280;54298;52.076;5.264;2022-12-24T02:37:20;100656.0;;;9.55;84.1
67430;BME280;54298;52.076;5.264;2022-12-24T02:39:02;100650.0;;;9.63;83.96
67430;BME280;54298;52.076;5.264;2022-12-24T02:40:44;100655.0;;;9.53;84.25
67430;BME280;54298;52.076;5.264;2022-12-24T02:44:06;100655.0;;;9.63;83.91
67430;BME280;54298;52.076;5.264;2022-12-24T02:45:48;100655.0;;;9.56;84.04
67430;BME280;54298;52.076;5.264;2022-12-24T02:47:27;100655.0;;;9.61;83.68
67430;BME280;54298;52.076;5.264;2022-12-24T02:49:04;100652.0;;;9.55;83.8
67430;BME280;54298;52.076;5.264;2022-12-24T02:52:34;100655.0;;;9.59;83.55
67430;BME280;54298;52.076;5.264;2022-12-24T02:54:11;100660.0;;;9.6;83.54
67430;BME280;54298;52.076;5.264;2022-12-24T02:55:58;100664.0;;;9.53;83.68
67430;BME280;54298;52.076;5.264;2022-12-24T02:58:09;100665.0;;;9.48;83.95
67430;BME280;54298;52.076;5.264;2022-12-24T03:00:02;100674.0;;;9.52;83.87
67430;BME280;54298;52.076;5.264;2022-12-24T03:01:46;100675.0;;;9.57;83.63
67430;BME280;54298;52.076;5.264;2022-12-24T03:03:34;100674.0;;;9.57;83.7
67430;BME280;54298;52.076;5.264;2022-12-24T03:07:06;100675.0;;;9.47;84.09
67430;BME280;54298;52.076;5.264;2022-12-24T03:08:50;100672.0;;;9.55;84.02
67430;BME280;54298;52.076;5.264;2022-12-24T03:10:37;100673.0;;;9.5;84.35
67430;BME280;54298;52.076;5.264;2022-12-24T03:12:20;100674.0;;;9.52;84.12
67430;BME280;54298;52.076;5.264;2022-12-24T03:14:00;100678.0;;;9.52;84.67
67430;BME280;54298;52.076;5.264;2022-12-24T03:17:17;100672.0;;;9.55;84.86
67430;BME280;54298;52.076;5.264;2022-12-24T03:18:55;100675.0;;;9.55;84.98
67430;BME280;54298;52.076;5.264;2022-12-24T03:20:37;100680.0;;;9.58;85.01
67430;BME280;54298;52.076;5.264;2022-12-24T03:22:15;100680.0;;;9.61;85.09
67430;BME280;54298;52.076;5.264;2022-12-24T03:25:32;100684.0;;;9.63;85.62
67430;BME280;54298;52.076;5.264;2022-12-24T03:27:10;100685.0;;;9.66;85.64
67430;BME280;54298;52.076;5.264;2022-12-24T03:30:25;100689.0;;;9.71;85.36
67430;BME280;54298;52.076;5.264;2022-12-24T03:32:03;100688.0;;;9.67;85.81
67430;BME280;54298;52.076;5.264;2022-12-24T03:33:39;100692.0;;;9.8;85.49
67430;BME280;54298;52.076;5.264;2022-12-24T03:35:16;100700.0;;;9.9;85.54
67430;BME280;54298;52.076;5.264;2022-12-24T03:36:52;100696.0;;;9.96;85.31
67430;BME280;54298;52.076;5.264;2022-12-24T03:40:07;100694.0;;;9.96;85.29
67430;BME280;54298;52.076;5.264;2022-12-24T03:41:44;100698.0;;;9.99;85.34
67430;BME280;54298;52.076;5.264;2022-12-24T03:43:20;100700.0;;;9.98;85.29
67430;BME280;54298;52.076;5.264;2022-12-24T03:46:32;100700.0;;;10.05;85.37
67430;BME280;54298;52.076;5.264;2022-12-24T03:48:09;100705.0;;;10.08;85.27
67430;BME280;54298;52.076;5.264;2022-12-24T03:49:45;100697.0;;;10.05;85.55
67430;BME280;54298;52.076;5.264;2022-12-24T03:53:00;100700.0;;;10.11;85.67
67430;BME280;54298;52.076;5.264;2022-12-24T03:54:36;100700.0;;;9.93;86.44
67430;BME280;54298;52.076;5.264;2022-12-24T03:56:13;100701.0;;;10.08;86.32
67430;BME280;54298;52.076;5.264;2022-12-24T03:57:50;100706.0;;;10.06;86.5
67430;BME280;54298;52.076;5.264;2022-12-24T04:01:02;100710.0;;;10.15;86.22
67430;BME280;54298;52.076;5.264;2022-12-24T04:02:39;100702.0;;;10.19;86.16
67430;BME280;54298;52.076;5.264;2022-12-24T04:04:15;100707.0;;;10.18;86.49
67430;BME280;54298;52.076;5.264;2022-12-24T04:07:37;100709.0;;;10.1;86.91
67430;BME280;54298;52.076;5.264;2022-12-24T04:09:13;100712.0;;;10.17;86.91
67430;BME280;54298;52.076;5.264;2022-12-24T04:10:49;100710.0;;;10.24;86.81
67430;BME280;54298;52.076;5.264;2022-12-24T04:12:25;100708.0;;;10.24;86.59
67430;BME280;54298;52.076;5.264;2022-12-24T04:15:38;100710.0;;;10.21;87.03
67430;BME280;54298;52.076;5.264;2022-12-24T04:17:14;100709.0;;;10.29;86.59
67430;BME280;54298;52.076;5.264;2022-12-24T04:18:51;100710.0;;;10.25;86.89
67430;BME280;54298;52.076;5.264;2022-12-24T04:22:04;100707.0;;;10.3;86.84
67430;BME280;54298;52.076;5.264;2022-12-24T04:23:41;100720.0;;;10.33;86.7
67430;BME280;54298;52.076;5.264;2022-12-24T04:25:17;100724.0;;;10.46;85.84
67430;BME280;54298;52.076;5.264;2022-12-24T04:28:30;100727.0;;;10.44;85.88
67430;BME280;54298;52.076;5.264;2022-12-24T04:30:07;100725.0;;;10.54;85.48
67430;BME280;54298;52.076;5.264;2022-12-24T04:31:44;100724.0;;;10.55;85.32
67430;BME280;54298;52.076;5.264;2022-12-24T04:33:20;100724.0;;;10.54;85.39
67430;BME280;54298;52.076;5.264;2022-12-24T04:36:32;100728.0;;;10.52;85.46
67430;BME280;54298;52.076;5.264;2022-12-24T04:38:09;100730.0;;;10.54;85.16
67430;BME280;54298;52.076;5.264;2022-12-24T04:39:45;100733.0;;;10.41;85.99
67430;BME280;54298;52.076;5.264;2022-12-24T04:42:59;100740.0;;;10.55;85.67
67430;BME280;54298;52.076;5.264;2022-12-24T04:44:36;100735.0;;;10.4;86.04
67430;BME280;54298;52.076;5.264;2022-12-24T04:47:51;100733.0;;;10.51;85.84
67430;BME280;54298;52.076;5.264;2022-12-24T04:49:27;100733.0;;;10.44;86.1
67430;BME280;54298;52.076;5.264;2022-12-24T04:51:05;100733.0;;;10.6;85.5
67430;BME280;54298;52.076;5.264;2022-12-24T04:52:42;100730.0;;;10.67;85.06
67430;BME280;54298;52.076;5.264;2022-12-24T04:54:18;100734.0;;;10.63;85.13
67430;BME280;54298;52.076;5.264;2022-12-24T04:57:30;100735.0;;;10.66;85.07
67430;BME280;54298;52.076;5.264;2022-12-24T04:59:08;100744.0;;;10.76;84.71
67430;BME280;54298;52.076;5.264;2022-12-24T05:00:44;100748.0;;;10.8;84.43
67430;BME280;54298;52.076;5.264;2022-12-24T05:03:56;100752.0;;;10.62;85.02
67430;BME280;54298;52.076;5.264;2022-12-24T05:05:33;100755.0;;;10.73;84.69
67430;BME280;54298;52.076;5.264;2022-12-24T05:07:09;100751.0;;;10.8;84.5
67430;BME280;54298;52.076;5.264;2022-12-24T05:10:22;100744.0;;;10.7;84.87
67430;BME280;54298;52.076;5.264;2022-12-24T05:11:58;100746.0;;;10.71;84.79
67430;BME280;54298;52.076;5.264;2022-12-24T05:13:35;100745.0;;;10.76;84.96
67430;BME280;54298;52.076;5.264;2022-12-24T05:16:47;100740.0;;;10.73;84.98
67430;BME280;54298;52.076;5.264;2022-12-24T05:18:23;100745.0;;;10.72;85.09
67430;BME280;54298;52.076;5.264;2022-12-24T05:20:00;100746.0;;;10.7;85.36
67430;BME280;54298;52.076;5.264;2022-12-24T05:21:36;100748.0;;;10.7;85.42
67430;BME280;54298;52.076;5.264;2022-12-24T05:24:52;100746.0;;;10.7;85.4
67430;BME280;54298;52.076;5.264;2022-12-24T05:26:32;100753.0;;;10.72;85.65
67430;BME280;54298;52.076;5.264;2022-12-24T05:28:09;100753.0;;;10.67;86.08
67430;BME280;54298;52.076;5.264;2022-12-24T05:31:23;100756.0;;;10.59;86.54
67430;BME280;54298;52.076;5.264;2022-12-24T05:33:00;100755.0;;;10.6;86.6
67430;BME280;54298;52.076;5.264;2022-12-24T05:34:36;100763.0;;;10.55;87.16
67430;BME280;54298;52.076;5.264;2022-12-24T05:36:12;100761.0;;;10.62;87.12
67430;BME280;54298;52.076;5.264;2022-12-24T05:39:25;100761.0;;;10.64;86.74
67430;BME280;54298;52.076;5.264;2022-12-24T05:41:01;100767.0;;;10.68;86.76
67430;BME280;54298;52.076;5.264;2022-12-24T05:42:39;100763.0;;;10.65;87.17
67430;BME280;54298;52.076;5.264;2022-12-24T05:45:57;100755.0;;;10.7;87.23
67430;BME280;54298;52.076;5.264;2022-12-24T05:47:33;100751.0;;;10.72;87.19
67430;BME280;54298;52.076;5.264;2022-12-24T05:49:09;100756.0;;;10.65;87.68
67430;BME280;54298;52.076;5.264;2022-12-24T05:50:48;100757.0;;;10.57;87.99
67430;BME280;54298;52.076;5.264;2022-12-24T05:54:00;100765.0;;;10.66;88.01
67430;BME280;54298;52.076;5.264;2022-12-24T05:55:36;100767.0;;;10.67;88.2
67430;BME280;54298;52.076;5.264;2022-12-24T05:57:12;100767.0;;;10.67;87.93
67430;BME280;54298;52.076;5.264;2022-12-24T06:00:26;100771.0;;;10.75;87.71
67430;BME280;54298;52.076;5.264;2022-12-24T06:02:02;100774.0;;;10.81;87.34
67430;BME280;54298;52.076;5.264;2022-12-24T06:03:38;100781.0;;;10.82;87.39
67430;BME280;54298;52.076;5.264;2022-12-24T06:06:51;100781.0;;;10.78;87.59
67430;BME280;54298;52.076;5.264;2022-12-24T06:08:28;100777.0;;;10.86;87.12
67430;BME280;54298;52.076;5.264;2022-12-24T06:10:06;100780.0;;;10.71;87.41
67430;BME280;54298;52.076;5.264;2022-12-24T06:11:43;100780.0;;;10.68;87.73
67430;BME280;54298;52.076;5.264;2022-12-24T06:14:55;100786.0;;;10.85;87.08
67430;BME280;54298;52.076;5.264;2022-12-24T06:16:31;100788.0;;;10.78;87.17
67430;BME280;54298;52.076;5.264;2022-12-24T06:18:07;100789.0;;;10.8;86.89
67430;BME280;54298;52.076;5.264;2022-12-24T06:21:20;100792.0;;;10.73;87.15
67430;BME280;54298;52.076;5.264;2022-12-24T06:22:57;100786.0;;;10.7;87.25
67430;BME280;54298;52.076;5.264;2022-12-24T06:24:33;100788.0;;;10.73;87.36
67430;BME280;54298;52.076;5.264;2022-12-24T06:27:48;100789.0;;;10.61;87.67
67430;BME280;54298;52.076;5.264;2022-12-24T06:29:24;100793.0;;;10.72;87.41
67430;BME280;54298;52.076;5.264;2022-12-24T06:31:01;100798.0;;;10.77;87.1
67430;BME280;54298;52.076;5.264;2022-12-24T06:32:37;100801.0;;;10.55;87.95
67430;BME280;54298;52.076;5.264;2022-12-24T06:35:50;100813.0;;;10.73;87.74
67430;BME280;54298;52.076;5.264;2022-12-24T06:37:26;100806.0;;;10.8;87.22
67430;BME280;54298;52.076;5.264;2022-12-24T06:39:02;100805.0;;;10.69;87.79
67430;BME280;54298;52.076;5.264;2022-12-24T06:42:16;100809.0;;;10.77;87.56
67430;BME280;54298;52.076;5.264;2022-12-24T06:43:53;100813.0;;;10.65;88.0
67430;BME280;54298;52.076;5.264;2022-12-24T06:45:29;100810.0;;;10.79;87.73
67430;BME280;54298;52.076;5.264;2022-12-24T06:48:42;100809.0;;;10.72;87.7
67430;BME280;54298;52.076;5.264;2022-12-24T06:50:18;100812.0;;;10.68;88.13
67430;BME280;54298;52.076;5.264;2022-12-24T06:51:54;100823.0;;;10.78;87.6
67430;BME280;54298;52.076;5.264;2022-12-24T06:53:32;100822.0;;;10.71;87.88
67430;BME280;54298;52.076;5.264;2022-12-24T06:56:45;100816.0;;;10.68;87.89
67430;BME280;54298;52.076;5.264;2022-12-24T06:58:21;100813.0;;;10.81;87.37
67430;BME280;54298;52.076;5.264;2022-12-24T06:59:57;100818.0;;;10.71;87.7
67430;BME280;54298;52.076;5.264;2022-12-24T07:03:11;100821.0;;;10.79;87.35
67430;BME280;54298;52.076;5.264;2022-12-24T07:04:47;100814.0;;;10.76;87.14
67430;BME280;54298;52.076;5.264;2022-12-24T07:06:24;100827.0;;;10.79;87.01
67430;BME280;54298;52.076;5.264;2022-12-24T07:09:39;100828.0;;;10.68;87.16
67430;BME280;54298;52.076;5.264;2022-12-24T07:11:16;100831.0;;;10.82;86.75
67430;BME280;54298;52.076;5.264;2022-12-24T07:12:53;100828.0;;;10.77;86.59
67430;BME280;54298;52.076;5.264;2022-12-24T07:14:29;100830.0;;;10.78;86.63
67430;BME280;54298;52.076;5.264;2022-12-24T07:17:43;100833.0;;;10.77;86.33
67430;BME280;54298;52.076;5.264;2022-12-24T07:19:19;100844.0;;;10.81;86.02
67430;BME280;54298;52.076;5.264;2022-12-24T07:20:55;100845.0;;;10.72;85.89
67430;BME280;54298;52.076;5.264;2022-12-24T07:24:08;100844.0;;;10.8;85.78
67430;BME280;54298;52.076;5.264;2022-12-24T07:25:45;100848.0;;;10.74;85.8
67430;BME280;54298;52.076;5.264;2022-12-24T07:27:21;100851.0;;;10.65;85.99
67430;BME280;54298;52.076;5.264;2022-12-24T07:30:34;100861.0;;;10.62;85.98
67430;BME280;54298;52.076;5.264;2022-12-24T07:32:10;100860.0;;;10.61;86.12
67430;BME280;54298;52.076;5.264;2022-12-24T07:33:46;100868.0;;;10.56;86.3
67430;BME280;54298;52.076;5.264;2022-12-24T07:35:22;100869.0;;;10.58;86.24
67430;BME280;54298;52.076;5.264;2022-12-24T07:38:35;100875.0;;;10.45;86.73
67430;BME280;54298;52.076;5.264;2022-12-24T07:40:13;100876.0;;;10.55;86.27
67430;BME280;54298;52.076;5.264;2022-12-24T07:41:49;100881.0;;;10.65;85.85
67430;BME280;54298;52.076;5.264;2022-12-24T07:45:03;100886.0;;;10.39;86.27
67430;BME280;54298;52.076;5.264;2022-12-24T07:46:40;100886.0;;;10.49;85.98
67430;BME280;54298;52.076;5.264;2022-12-24T07:48:17;100898.0;;;10.41;86.3
67430;BME280;54298;52.076;5.264;2022-12-24T07:51:29;100901.0;;;10.38;86.52
67430;BME280;54298;52.076;5.264;2022-12-24T07:53:06;100907.0;;;10.42;86.44
67430;BME280;54298;52.076;5.264;2022-12-24T07:54:42;100909.0;;;10.25;87.04
67430;BME280;54298;52.076;5.264;2022-12-24T07:56:19;100917.0;;;10.37;86.68
67430;BME280;54298;52.076;5.264;2022-12-24T07:59:31;100930.0;;;10.36;86.8
67430;BME280;54298;52.076;5.264;2022-12-24T08:01:10;100927.0;;;10.42;86.63
67430;BME280;54298;52.076;5.264;2022-12-24T08:02:46;100926.0;;;10.49;86.27
67430;BME280;54298;52.076;5.264;2022-12-24T08:05:59;100936.0;;;10.58;85.82
67430;BME280;54298;52.076;5.264;2022-12-24T08:07:36;100937.0;;;10.49;85.89
67430;BME280;54298;52.076;5.264;2022-12-24T08:09:12;100937.0;;;10.6;85.37
67430;BME280;54298;52.076;5.264;2022-12-24T08:12:26;100941.0;;;10.55;85.46
67430;BME280;54298;52.076;5.264;2022-12-24T08:14:02;100947.0;;;10.62;85.32
67430;BME280;54298;52.076;5.264;2022-12-24T08:15:38;100949.0;;;10.63;85.21
67430;BME280;54298;52.076;5.264;2022-12-24T08:17:14;100948.0;;;10.59;85.45
67430;BME280;54298;52.076;5.264;2022-12-24T08:20:27;100960.0;;;10.45;85.92
67430;BME280;54298;52.076;5.264;2022-12-24T08:22:03;100964.0;;;10.61;85.38
67430;BME280;54298;52.076;5.264;2022-12-24T08:23:39;100962.0;;;10.64;85.3
67430;BME280;54298;52.076;5.264;2022-12-24T08:26:52;100957.0;;;10.64;85.28
67430;BME280;54298;52.076;5.264;2022-12-24T08:28:28;100964.0;;;10.77;85.04
67430;BME280;54298;52.076;5.264;2022-12-24T08:30:06;100965.0;;;10.74;85.36
67430;BME280;54298;52.076;5.264;2022-12-24T08:33:19;100971.0;;;10.66;85.4
67430;BME280;54298;52.076;5.264;2022-12-24T08:34:55;100975.0;;;10.78;85.15
67430;BME280;54298;52.076;5.264;2022-12-24T08:36:31;100977.0;;;10.82;85.34
67430;BME280;54298;52.076;5.264;2022-12-24T08:38:07;100980.0;;;10.8;85.42
67430;BME280;54298;52.076;5.264;2022-12-24T08:41:20;100977.0;;;10.76;85.55
67430;BME280;54298;52.076;5.264;2022-12-24T08:42:56;100976.0;;;10.85;85.29
67430;BME280;54298;52.076;5.264;2022-12-24T08:44:32;100985.0;;;10.88;85.3
67430;BME280;54298;52.076;5.264;2022-12-24T08:47:46;100996.0;;;10.81;85.52
67430;BME280;54298;52.076;5.264;2022-12-24T08:49:23;100992.0;;;10.82;85.66
67430;BME280;54298;52.076;5.264;2022-12-24T08:50:59;100997.0;;;10.98;85.16
67430;BME280;54298;52.076;5.264;2022-12-24T08:54:11;100996.0;;;10.71;85.96
67430;BME280;54298;52.076;5.264;2022-12-24T08:55:47;101000.0;;;10.77;86.02
67430;BME280;54298;52.076;5.264;2022-12-24T08:57:23;101005.0;;;10.82;85.8
67430;BME280;54298;52.076;5.264;2022-12-24T09:00:36;101006.0;;;10.94;85.54
67430;BME280;54298;52.076;5.264;2022-12-24T09:02:13;101010.0;;;10.86;85.54
67430;BME280;54298;52.076;5.264;2022-12-24T09:03:49;101014.0;;;10.89;85.52
67430;BME280;54298;52.076;5.264;2022-12-24T09:05:25;101016.0;;;10.96;85.3
67430;BME280;54298;52.076;5.264;2022-12-24T09:08:38;101016.0;;;11.04;84.93
67430;BME280;54298;52.076;5.264;2022-12-24T09:10:15;101024.0;;;11.03;85.02
67430;BME280;54298;52.076;5.264;2022-12-24T09:11:51;101021.0;;;10.97;85.37
67430;BME280;54298;52.076;5.264;2022-12-24T09:15:04;101030.0;;;10.96;85.31
67430;BME280;54298;52.076;5.264;2022-12-24T09:18:17;101035.0;;;11.06;85.07
67430;BME280;54298;52.076;5.264;2022-12-24T09:21:30;101035.0;;;11.14;84.68
67430;BME280;54298;52.076;5.264;2022-12-24T09:23:06;101039.0;;;11.11;84.66
67430;BME280;54298;52.076;5.264;2022-12-24T09:24:42;101043.0;;;11.1;84.61
67430;BME280;54298;52.076;5.264;2022-12-24T09:26:21;101051.0;;;11.12;84.48
67430;BME280;54298;52.076;5.264;2022-12-24T09:29:34;101050.0;;;11.06;84.65
67430;BME280;54298;52.076;5.264;2022-12-24T09:31:10;101043.0;;;11.22;84.21
67430;BME280;54298;52.076;5.264;2022-12-24T09:32:49;101046.0;;;11.22;84.29
67430;BME280;54298;52.076;5.264;2022-12-24T09:36:03;101059.0;;;11.19;84.11
67430;BME280;54298;52.076;5.264;2022-12-24T09:37:40;101059.0;;;11.13;84.08
67430;BME280;54298;52.076;5.264;2022-12-24T09:39:17;101060.0;;;11.09;84.18
67430;BME280;54298;52.076;5.264;2022-12-24T09:40:53;101067.0;;;11.04;84.29
67430;BME280;54298;52.076;5.264;2022-12-24T09:44:33;101070.0;;;11.14;83.96
67430;BME280;54298;52.076;5.264;2022-12-24T09:46:19;101071.0;;;11.3;83.63
67430;BME280;54298;52.076;5.264;2022-12-24T09:48:00;101085.0;;;11.37;83.16
67430;BME280;54298;52.076;5.264;2022-12-24T09:49:42;101082.0;;;11.35;82.91
67430;BME280;54298;52.076;5.264;2022-12-24T09:51:27;101082.0;;;11.31;83.25
67430;BME280;54298;52.076;5.264;2022-12-24T09:55:04;101083.0;;;11.38;82.92
67430;BME280;54298;52.076;5.264;2022-12-24T09:56:45;101081.0;;;11.55;82.41
67430;BME280;54298;52.076;5.264;2022-12-24T09:58:24;101082.0;;;11.34;82.47
67430;BME280;54298;52.076;5.264;2022-12-24T10:00:15;101080.0;;;11.36;82.57
67430;BME280;54298;52.076;5.264;2022-12-24T10:01:54;101086.0;;;11.42;82.58
67430;BME280;54298;52.076;5.264;2022-12-24T10:05:13;101085.0;;;11.56;82.12
67430;BME280;54298;52.076;5.264;2022-12-24T10:06:53;101085.0;;;11.51;82.05
67430;BME280;54298;52.076;5.264;2022-12-24T10:08:44;101091.0;;;11.67;81.62
67430;BME280;54298;52.076;5.264;2022-12-24T10:10:30;101092.0;;;11.61;81.62
67430;BME280;54298;52.076;5.264;2022-12-24T10:14:06;101096.0;;;11.44;81.98
67430;BME280;54298;52.076;5.264;2022-12-24T10:15:53;101097.0;;;11.42;82.3
67430;BME280;54298;52.076;5.264;2022-12-24T10:19:36;101099.0;;;11.38;82.51
67430;BME280;54298;52.076;5.264;2022-12-24T10:23:15;101100.0;;;11.42;82.61
67430;BME280;54298;52.076;5.264;2022-12-24T10:28:31;101100.0;;;11.55;82.28
67430;BME280;54298;52.076;5.264;2022-12-24T10:30:17;101095.0;;;11.54;82.27
67430;BME280;54298;52.076;5.264;2022-12-24T10:32:00;101096.0;;;11.57;82.13
67430;BME280;54298;52.076;5.264;2022-12-24T10:33:48;101101.0;;;11.58;81.89
67430;BME280;54298;52.076;5.264;2022-12-24T10:35:34;101094.0;;;11.54;82.26
67430;BME280;54298;52.076;5.264;2022-12-24T10:38:58;101097.0;;;11.6;81.95
67430;BME280;54298;52.076;5.264;2022-12-24T10:40:39;101101.0;;;11.56;82.17
67430;BME280;54298;52.076;5.264;2022-12-24T10:42:18;101105.0;;;11.75;81.86
67430;BME280;54298;52.076;5.264;2022-12-24T10:43:58;101112.0;;;11.74;81.95
67430;BME280;54298;52.076;5.264;2022-12-24T10:47:19;101110.0;;;11.79;81.47
67430;BME280;54298;52.076;5.264;2022-12-24T10:48:59;101107.0;;;11.61;81.74
67430;BME280;54298;52.076;5.264;2022-12-24T10:50:40;101105.0;;;11.68;81.72
67430;BME280;54298;52.076;5.264;2022-12-24T10:52:20;101105.0;;;11.69;81.7
67430;BME280;54298;52.076;5.264;2022-12-24T10:55:41;101109.0;;;11.69;81.62
67430;BME280;54298;52.076;5.264;2022-12-24T10:57:23;101110.0;;;11.82;81.23
67430;BME280;54298;52.076;5.264;2022-12-24T10:59:00;101113.0;;;11.9;80.8
67430;BME280;54298;52.076;5.264;2022-12-24T11:00:40;101108.0;;;11.85;80.94
67430;BME280;54298;52.076;5.264;2022-12-24T11:04:04;101119.0;;;12.02;80.52
67430;BME280;54298;52.076;5.264;2022-12-24T11:05:40;101119.0;;;11.92;80.34
67430;BME280;54298;52.076;5.264;2022-12-24T11:07:19;101118.0;;;11.95;80.34
67430;BME280;54298;52.076;5.264;2022-12-24T11:09:12;101123.0;;;11.96;80.25
67430;BME280;54298;52.076;5.264;2022-12-24T11:10:57;101107.0;;;11.95;80.2
67430;BME280;54298;52.076;5.264;2022-12-24T11:14:16;101108.0;;;11.9;80.41
67430;BME280;54298;52.076;5.264;2022-12-24T11:16:01;101105.0;;;11.76;80.63
67430;BME280;54298;52.076;5.264;2022-12-24T11:17:39;101103.0;;;11.87;80.27
67430;BME280;54298;52.076;5.264;2022-12-24T11:19:18;101108.0;;;11.86;80.36